Terminal Aerodrome Forecast
Issued by NWS North Platte, NE

Home | Current Version | Previous Version | Graphics & Text | Print | Product List | Glossary On
Versions: 1 2 3 4 5 6 7 8 9 10 11 12 13
000
FTUS43 KLBF 171720
TAFVTN
TAF
KVTN 171720Z 1718/1818 22008KT P6SM FEW250
     FM180400 19006KT P6SM SKC
     FM180900 28010G16KT P6SM FEW250 WS020/35045KT
     FM181400 33013G23KT P6SM SKC=

USA.gov is the U.S. government's official web portal to all federal, state and local government web resources and services.